createdAt,value
2023-04-04T00:00:28.163Z,36.99
2023-04-04T00:02:56.172Z,37.53
2023-04-04T00:05:23.955Z,36.70
2023-04-04T00:07:51.326Z,37.97
2023-04-04T00:10:18.915Z,38.36
2023-04-04T00:12:46.672Z,38.44
2023-04-04T00:15:14.168Z,37.11
2023-04-04T00:17:41.828Z,36.75
2023-04-04T00:20:09.623Z,36.41
2023-04-04T00:22:36.996Z,37.66
2023-04-04T00:25:04.852Z,37.56
2023-04-04T00:27:32.225Z,39.02
2023-04-04T00:29:59.791Z,38.69
2023-04-04T00:32:27.574Z,38.14
2023-04-04T00:34:55.103Z,39.27
2023-04-04T00:37:22.579Z,38.87
2023-04-04T00:39:50.464Z,39.24
2023-04-04T00:42:17.940Z,39.49
2023-04-04T00:44:45.467Z,40.38
2023-04-04T00:47:13.256Z,39.66
2023-04-04T00:49:40.637Z,40.17
2023-04-04T00:52:08.165Z,40.64
2023-04-04T00:54:35.946Z,41.08
2023-04-04T00:57:04.231Z,40.62
2023-04-04T00:59:31.677Z,39.72
2023-04-04T01:02:00.626Z,39.82
2023-04-04T01:04:29.348Z,40.76
2023-04-04T01:06:56.895Z,42.47
2023-04-04T01:09:24.687Z,45.41
2023-04-04T01:11:52.123Z,43.07
2023-04-04T01:14:19.831Z,44.28
2023-04-04T01:16:48.607Z,43.58
2023-04-04T01:19:20.508Z,43.26
2023-04-04T01:21:48.163Z,42.88
2023-04-04T01:24:16.665Z,42.19
2023-04-04T01:26:44.563Z,42.00
2023-04-04T01:29:12.384Z,41.17
2023-04-04T01:31:41.915Z,42.23
2023-04-04T01:34:44.910Z,41.96
2023-04-04T01:37:15.595Z,43.27
2023-04-04T01:39:48.137Z,42.32
2023-04-04T01:42:15.869Z,42.17
2023-04-04T01:44:44.065Z,41.58
2023-04-04T01:47:14.993Z,42.37
2023-04-04T01:49:43.225Z,42.97
2023-04-04T01:52:10.670Z,42.28
2023-04-04T01:54:38.287Z,41.96
2023-04-04T01:57:06.296Z,41.85
2023-04-04T01:59:34.282Z,42.76
2023-04-04T02:02:01.917Z,43.03
2023-04-04T02:04:30.375Z,42.52
2023-04-04T02:06:58.496Z,41.74
2023-04-04T02:09:26.313Z,44.04
2023-04-04T02:11:54.651Z,43.37
2023-04-04T02:14:22.061Z,42.90
2023-04-04T02:16:50.725Z,42.84
2023-04-04T02:19:18.779Z,43.04
2023-04-04T02:21:46.496Z,43.53
2023-04-04T02:24:13.941Z,42.73
2023-04-04T02:26:42.244Z,43.71
2023-04-04T02:29:09.960Z,43.04
2023-04-04T02:31:37.817Z,43.20
2023-04-04T02:34:05.576Z,43.11
2023-04-04T02:36:34.024Z,43.12
2023-04-04T02:39:02.449Z,43.66
2023-04-04T02:41:30.571Z,44.49
2023-04-04T02:43:58.469Z,42.36
2023-04-04T02:46:26.124Z,41.85
2023-04-04T02:48:54.529Z,43.35
2023-04-04T02:51:22.451Z,43.68
2023-04-04T02:53:49.850Z,43.49
2023-04-04T02:56:17.608Z,42.33
2023-04-04T02:58:45.653Z,41.66
2023-04-04T03:01:13.077Z,41.11
2023-04-04T03:03:40.577Z,40.63
2023-04-04T03:06:08.679Z,40.77
2023-04-04T03:08:36.386Z,41.11
2023-04-04T03:11:04.007Z,40.44
2023-04-04T03:13:31.650Z,41.36
2023-04-04T03:16:03.479Z,41.14
2023-04-04T03:18:31.524Z,40.70
2023-04-04T03:20:59.161Z,40.42
2023-04-04T03:23:26.665Z,40.78
2023-04-04T03:25:55.091Z,40.44
2023-04-04T03:28:23.224Z,39.95
2023-04-04T03:30:50.809Z,39.70
2023-04-04T03:33:19.382Z,40.76
2023-04-04T03:35:47.108Z,41.63
2023-04-04T03:38:14.597Z,40.85
2023-04-04T03:40:42.897Z,41.65
2023-04-04T03:43:11.258Z,41.34
2023-04-04T03:45:39.267Z,43.06
2023-04-04T03:48:07.477Z,42.25
2023-04-04T03:50:36.734Z,43.69
2023-04-04T03:53:04.125Z,42.89
2023-04-04T03:55:31.478Z,44.36
2023-04-04T03:57:59.259Z,43.38
2023-04-04T04:00:27.208Z,43.37
2023-04-04T04:02:54.914Z,43.34
2023-04-04T04:05:22.599Z,43.40
2023-04-04T04:07:49.956Z,44.71
2023-04-04T04:10:18.393Z,43.33
2023-04-04T04:12:45.808Z,44.95
2023-04-04T04:15:13.511Z,43.83
2023-04-04T04:17:42.042Z,45.88
2023-04-04T04:20:10.048Z,45.75
2023-04-04T04:22:38.208Z,46.59
2023-04-04T04:25:06.066Z,46.52
2023-04-04T04:27:34.069Z,45.53
2023-04-04T04:30:01.550Z,48.64
2023-04-04T04:32:34.364Z,48.52
2023-04-04T04:35:02.280Z,48.06
2023-04-04T04:37:30.937Z,46.53
2023-04-04T04:39:58.733Z,46.68
2023-04-04T04:42:27.461Z,45.94
2023-04-04T04:44:56.028Z,47.83
2023-04-04T04:47:23.824Z,48.40
2023-04-04T04:49:51.946Z,49.12
2023-04-04T04:52:20.547Z,48.53
2023-04-04T04:54:48.467Z,47.61
2023-04-04T04:57:16.112Z,47.60
2023-04-04T04:59:44.320Z,45.99
2023-04-04T05:02:12.196Z,46.50
2023-04-04T05:04:44.840Z,47.84
2023-04-04T05:07:12.773Z,48.00
2023-04-04T05:09:40.514Z,49.13
2023-04-04T05:12:08.049Z,49.24
2023-04-04T05:14:36.152Z,48.52
2023-04-04T05:17:03.527Z,49.18
2023-04-04T05:19:31.618Z,48.03
2023-04-04T05:21:59.707Z,48.22
2023-04-04T05:24:27.803Z,49.04
2023-04-04T05:26:55.632Z,47.82
2023-04-04T05:29:23.429Z,48.41
2023-04-04T05:31:51.175Z,47.47
2023-04-04T05:34:18.865Z,49.21
2023-04-04T05:36:47.952Z,48.71
2023-04-04T05:39:15.501Z,48.46
2023-04-04T05:41:43.619Z,47.90
2023-04-04T05:44:12.444Z,47.26
2023-04-04T05:46:39.961Z,46.48
2023-04-04T05:49:07.870Z,47.45
2023-04-04T05:51:36.711Z,46.09
2023-04-04T05:54:07.482Z,45.84
2023-04-04T05:56:35.035Z,45.72
2023-04-04T05:59:03.553Z,45.97
2023-04-04T06:01:31.414Z,44.67
2023-04-04T06:04:00.724Z,44.80
2023-04-04T06:06:28.257Z,44.08
2023-04-04T06:08:55.993Z,43.33
2023-04-04T06:11:23.655Z,42.41
2023-04-04T06:13:52.882Z,41.98
2023-04-04T06:16:21.406Z,42.11
2023-04-04T06:18:49.190Z,42.05
2023-04-04T06:21:16.606Z,42.48
2023-04-04T06:23:44.003Z,41.17
2023-04-04T06:26:12.634Z,40.99
2023-04-04T06:28:50.051Z,41.46
2023-04-04T06:31:18.222Z,40.81
2023-04-04T06:33:46.160Z,40.52
2023-04-04T06:36:14.257Z,39.08
2023-04-04T06:38:41.957Z,39.71
2023-04-04T06:41:13.290Z,38.05
2023-04-04T06:43:40.926Z,38.44
2023-04-04T06:46:09.313Z,38.20
2023-04-04T06:48:37.387Z,37.17
2023-04-04T06:51:07.977Z,36.88
2023-04-04T06:53:35.925Z,37.26
2023-04-04T06:56:04.734Z,37.32
2023-04-04T06:58:32.601Z,37.51
2023-04-04T07:01:02.238Z,37.64
2023-04-04T07:03:29.653Z,37.66
2023-04-04T07:05:57.215Z,37.29
2023-04-04T07:08:24.818Z,36.56
2023-04-04T07:10:52.225Z,36.30
2023-04-04T07:13:19.625Z,35.99
2023-04-04T07:15:50.923Z,36.05
2023-04-04T07:18:18.330Z,36.40
2023-04-04T07:20:48.561Z,36.05
2023-04-04T07:23:16.231Z,34.96
2023-04-04T07:25:44.415Z,34.63
2023-04-04T07:28:13.447Z,34.90
2023-04-04T07:30:42.707Z,34.43
2023-04-04T07:33:10.572Z,34.41
2023-04-04T07:35:38.391Z,34.52
2023-04-04T07:38:10.308Z,35.19
2023-04-04T07:40:38.297Z,34.12
2023-04-04T07:43:06.688Z,34.76
2023-04-04T07:45:34.380Z,33.82
2023-04-04T07:48:02.129Z,34.35
2023-04-04T07:50:29.604Z,35.93
2023-04-04T07:52:58.668Z,34.97
2023-04-04T07:55:26.212Z,36.15
2023-04-04T07:57:53.651Z,34.54
2023-04-04T08:00:22.154Z,34.65
2023-04-04T08:02:53.735Z,36.29
2023-04-04T08:05:21.319Z,36.47
2023-04-04T08:07:48.664Z,37.40
2023-04-04T08:10:19.385Z,35.91
2023-04-04T08:12:46.836Z,36.67
2023-04-04T08:15:14.173Z,36.62
2023-04-04T08:17:43.675Z,36.65
2023-04-04T08:20:15.815Z,35.33
2023-04-04T08:22:43.415Z,36.31
2023-04-04T08:25:11.412Z,36.24
2023-04-04T08:27:44.911Z,34.72
2023-04-04T08:30:14.350Z,35.06
2023-04-04T08:32:42.288Z,35.68
2023-04-04T08:35:09.794Z,33.86
2023-04-04T08:37:37.525Z,33.28
2023-04-04T08:40:05.341Z,33.98
2023-04-04T08:42:33.271Z,34.09
2023-04-04T08:45:01.959Z,34.41
2023-04-04T08:47:30.205Z,34.30
2023-04-04T08:49:57.600Z,34.22
2023-04-04T08:52:25.609Z,33.70
2023-04-04T08:54:52.999Z,33.36
2023-04-04T08:57:20.517Z,34.22
2023-04-04T08:59:48.447Z,32.20
2023-04-04T09:02:21.439Z,33.02
2023-04-04T09:04:58.608Z,34.35
2023-04-04T09:07:33.340Z,32.55
2023-04-04T09:10:01.342Z,32.46
2023-04-04T09:12:29.135Z,32.64
2023-04-04T09:14:56.760Z,32.45
2023-04-04T09:17:24.525Z,31.50
2023-04-04T09:19:54.218Z,31.71
2023-04-04T09:22:21.946Z,31.90
2023-04-04T09:24:51.736Z,31.21
2023-04-04T09:27:19.146Z,30.33
2023-04-04T09:29:47.433Z,32.49
2023-04-04T09:32:16.026Z,30.59
2023-04-04T09:34:44.040Z,30.28
2023-04-04T09:37:14.348Z,31.21
2023-04-04T09:39:43.549Z,32.75
2023-04-04T09:42:11.194Z,32.29
2023-04-04T09:44:38.777Z,30.91
2023-04-04T09:50:00.126Z,32.46
2023-04-04T09:52:27.983Z,31.34
2023-04-04T09:54:57.119Z,31.57
2023-04-04T09:57:34.905Z,32.72
2023-04-04T10:00:08.775Z,32.64
2023-04-04T10:02:41.302Z,31.50
2023-04-04T10:05:10.259Z,31.01
2023-04-04T10:07:42.336Z,31.57
2023-04-04T10:10:10.617Z,30.30
2023-04-04T10:12:38.517Z,29.14
2023-04-04T10:15:06.269Z,29.61
2023-04-04T10:17:41.028Z,27.92
2023-04-04T10:20:09.168Z,27.78
2023-04-04T10:22:38.057Z,29.84
2023-04-04T10:25:06.051Z,27.98
2023-04-04T10:27:38.608Z,29.06
2023-04-04T10:30:07.785Z,29.23
2023-04-04T10:33:07.503Z,29.64
2023-04-04T10:35:35.311Z,28.83
2023-04-04T10:38:03.557Z,28.14
2023-04-04T10:40:33.288Z,30.01
2023-04-04T10:43:03.012Z,28.07
2023-04-04T10:45:32.134Z,30.11
2023-04-04T10:48:00.436Z,28.62
2023-04-04T10:50:28.361Z,30.13
2023-04-04T10:52:58.468Z,29.89
2023-04-04T10:55:26.482Z,29.42
2023-04-04T10:57:55.315Z,29.72
2023-04-04T11:00:26.161Z,29.46
2023-04-04T11:03:00.487Z,30.63
2023-04-04T11:05:31.078Z,29.27
2023-04-04T11:08:09.093Z,29.74
2023-04-04T11:10:44.594Z,29.93
2023-04-04T11:13:18.230Z,28.38
2023-04-04T11:15:59.798Z,28.71
2023-04-04T11:18:42.331Z,27.63
2023-04-04T11:21:11.462Z,27.97
2023-04-04T11:23:48.086Z,28.25
2023-04-04T11:26:20.083Z,28.67
2023-04-04T11:28:48.562Z,28.67
2023-04-04T11:31:19.379Z,29.47
2023-04-04T11:34:05.923Z,29.13
2023-04-04T11:36:36.836Z,29.32
2023-04-04T11:39:30.343Z,29.46
2023-04-04T11:42:10.781Z,29.03
2023-04-04T11:44:59.833Z,29.66
2023-04-04T11:47:27.910Z,29.41
2023-04-04T11:49:55.900Z,30.16
2023-04-04T11:52:26.378Z,30.28
2023-04-04T11:54:54.235Z,30.98
2023-04-04T11:57:21.903Z,30.57
2023-04-04T11:59:50.568Z,28.57
2023-04-04T12:02:27.550Z,28.82
2023-04-04T12:04:55.693Z,29.63
2023-04-04T12:07:24.531Z,28.23
2023-04-04T12:09:51.945Z,27.85
2023-04-04T12:12:19.916Z,27.67
2023-04-04T12:14:47.749Z,27.52
2023-04-04T12:17:16.205Z,29.14
2023-04-04T12:19:44.392Z,29.12
2023-04-04T12:22:11.859Z,28.21
2023-04-04T12:24:39.323Z,28.06
2023-04-04T12:27:07.194Z,28.26
2023-04-04T12:29:36.449Z,27.30
2023-04-04T12:32:04.079Z,26.09
2023-04-04T12:34:35.293Z,26.46
2023-04-04T12:37:02.895Z,25.75
2023-04-04T12:39:30.358Z,26.64
2023-04-04T12:41:59.197Z,26.89
2023-04-04T12:44:33.249Z,27.43
2023-04-04T12:47:03.218Z,28.79
2023-04-04T12:49:32.417Z,27.80
2023-04-04T12:52:04.410Z,27.64
2023-04-04T12:54:33.355Z,28.29
2023-04-04T12:57:04.186Z,25.87
2023-04-04T12:59:33.422Z,25.82
2023-04-04T13:02:06.824Z,25.50
2023-04-04T13:04:34.584Z,27.09
2023-04-04T13:07:02.690Z,26.81
2023-04-04T13:09:30.242Z,27.21
2023-04-04T13:11:59.896Z,27.66
2023-04-04T13:14:28.462Z,26.83
2023-04-04T13:17:04.698Z,26.06
2023-04-04T13:19:32.453Z,27.06
2023-04-04T13:22:01.314Z,25.86
2023-04-04T13:24:28.839Z,25.63
2023-04-04T13:26:57.116Z,27.38
2023-04-04T13:29:25.404Z,28.10
2023-04-04T13:31:53.372Z,26.70
2023-04-04T13:34:24.237Z,27.15
2023-04-04T13:36:51.646Z,27.46
2023-04-04T13:39:19.102Z,27.33
2023-04-04T13:41:46.751Z,27.79
2023-04-04T13:44:14.517Z,27.59
2023-04-04T13:46:42.269Z,30.35
2023-04-04T13:49:11.210Z,30.19
2023-04-04T13:51:38.699Z,30.93
2023-04-04T13:54:06.528Z,28.18
2023-04-04T13:56:34.295Z,29.53
2023-04-04T13:59:01.713Z,29.48
2023-04-04T14:01:29.159Z,29.50
2023-04-04T14:03:56.901Z,28.43
2023-04-04T14:06:24.457Z,30.52
2023-04-04T14:08:51.797Z,29.07
2023-04-04T14:11:19.595Z,29.21
2023-04-04T14:13:47.067Z,31.75
2023-04-04T14:16:14.628Z,28.95
2023-04-04T14:18:42.304Z,31.05
2023-04-04T14:21:09.703Z,29.03
2023-04-04T14:23:37.420Z,27.11
2023-04-04T14:26:05.065Z,30.34
2023-04-04T14:28:32.782Z,28.16
2023-04-04T14:31:00.151Z,28.12
2023-04-04T14:33:27.737Z,30.89
2023-04-04T14:35:55.117Z,29.01
2023-04-04T14:38:22.488Z,31.12
2023-04-04T14:40:50.246Z,29.16
2023-04-04T14:43:17.575Z,28.16
2023-04-04T14:45:44.932Z,28.13
2023-04-04T14:48:12.553Z,30.42
2023-04-04T14:50:40.392Z,28.54
2023-04-04T14:53:07.873Z,30.07
2023-04-04T14:55:35.584Z,32.80
2023-04-04T14:58:03.294Z,32.83
2023-04-04T15:00:31.228Z,29.98
2023-04-04T15:02:59.456Z,31.84
2023-04-04T15:05:27.324Z,29.71
2023-04-04T15:07:55.756Z,30.12
2023-04-04T15:10:23.846Z,30.50
2023-04-04T15:12:51.300Z,29.27
2023-04-04T15:15:18.754Z,28.72
2023-04-04T15:17:46.759Z,29.44
2023-04-04T15:20:14.174Z,29.54
2023-04-04T15:22:41.621Z,31.63
2023-04-04T15:25:09.418Z,32.31
2023-04-04T15:27:36.823Z,30.05
2023-04-04T15:30:04.868Z,31.76
2023-04-04T15:32:32.555Z,32.54
2023-04-04T15:34:59.940Z,29.59
2023-04-04T15:37:27.308Z,30.00
2023-04-04T15:39:54.959Z,29.62
2023-04-04T15:42:22.322Z,30.44
2023-04-04T15:44:49.670Z,29.69
2023-04-04T15:47:17.413Z,33.08
2023-04-04T15:49:44.778Z,28.79
2023-04-04T15:52:12.388Z,30.07
2023-04-04T15:54:39.980Z,30.92
2023-04-04T15:57:07.341Z,31.34
2023-04-04T15:59:34.863Z,31.71
2023-04-04T16:02:04.730Z,29.11
2023-04-04T16:04:33.060Z,29.10
2023-04-04T16:07:00.579Z,28.82
2023-04-04T16:09:28.136Z,30.03
2023-04-04T16:11:56.163Z,31.24
2023-04-04T16:14:24.131Z,29.32
2023-04-04T16:16:51.590Z,29.97
2023-04-04T16:19:19.337Z,30.63
2023-04-04T16:21:47.002Z,30.52
2023-04-04T16:24:15.080Z,30.42
2023-04-04T16:26:50.081Z,30.06
2023-04-04T16:29:17.725Z,32.23
2023-04-04T16:31:45.425Z,32.26
2023-04-04T16:34:12.792Z,31.31
2023-04-04T16:36:40.156Z,31.08
2023-04-04T16:39:07.845Z,31.16
2023-04-04T16:41:35.293Z,30.98
2023-04-04T16:44:02.676Z,32.01
2023-04-04T16:46:30.374Z,32.75
2023-04-04T16:48:57.843Z,32.63
2023-04-04T16:51:25.970Z,33.00
2023-04-04T16:53:53.803Z,32.81
2023-04-04T16:56:21.174Z,33.40
2023-04-04T16:58:48.567Z,32.68
2023-04-04T17:01:20.499Z,34.23
2023-04-04T17:03:48.708Z,33.27
2023-04-04T17:06:16.386Z,32.52
2023-04-04T17:08:46.513Z,31.43
2023-04-04T17:11:13.867Z,31.94
2023-04-04T17:13:41.452Z,35.32
2023-04-04T17:16:09.241Z,31.40
2023-04-04T17:18:36.827Z,32.65
2023-04-04T17:21:04.450Z,31.69
2023-04-04T17:23:31.830Z,36.36
2023-04-04T17:25:59.193Z,33.20
2023-04-04T17:28:26.816Z,33.52
2023-04-04T17:30:54.176Z,32.65
2023-04-04T17:33:23.186Z,33.18
2023-04-04T17:35:50.841Z,33.21
2023-04-04T17:38:19.991Z,32.95
2023-04-04T17:40:49.049Z,31.79
2023-04-04T17:43:16.922Z,32.39
2023-04-04T17:45:44.904Z,31.87
2023-04-04T17:48:12.533Z,32.12
2023-04-04T17:50:40.635Z,31.73
2023-04-04T17:53:08.432Z,31.31
2023-04-04T17:55:36.659Z,32.74
2023-04-04T17:58:04.284Z,30.67
2023-04-04T18:00:31.658Z,31.84
2023-04-04T18:02:59.594Z,31.62
2023-04-04T18:05:27.264Z,31.85
2023-04-04T18:07:54.606Z,31.11
2023-04-04T18:10:22.217Z,34.95
2023-04-04T18:12:49.523Z,34.12
2023-04-04T18:15:16.849Z,30.74
2023-04-04T18:17:44.547Z,31.92
2023-04-04T18:20:16.391Z,31.55
2023-04-04T18:22:49.019Z,32.17
2023-04-04T18:25:19.696Z,32.25
2023-04-04T18:27:47.199Z,31.33
2023-04-04T18:30:14.827Z,31.61
2023-04-04T18:32:42.597Z,31.70
2023-04-04T18:35:10.241Z,33.38
2023-04-04T18:37:37.852Z,33.15
2023-04-04T18:40:05.755Z,32.00
2023-04-04T18:42:33.883Z,31.14
2023-04-04T18:45:02.029Z,34.76
2023-04-04T18:47:30.846Z,34.38
2023-04-04T18:49:58.220Z,31.16
2023-04-04T18:52:25.984Z,32.03
2023-04-04T18:54:53.346Z,33.23
2023-04-04T18:57:20.795Z,34.91
2023-04-04T18:59:48.521Z,35.07
2023-04-04T19:02:15.866Z,33.57
2023-04-04T19:04:43.216Z,32.61
2023-04-04T19:07:11.344Z,34.47
2023-04-04T19:09:38.729Z,33.73
2023-04-04T19:12:06.205Z,34.48
2023-04-04T19:14:33.886Z,33.84
2023-04-04T19:17:01.389Z,34.09
2023-04-04T19:19:29.146Z,33.21
2023-04-04T19:21:56.759Z,33.64
2023-04-04T19:24:24.119Z,33.97
2023-04-04T19:26:51.528Z,34.14
2023-04-04T19:29:20.948Z,33.23
2023-04-04T19:31:48.476Z,33.68
2023-04-04T19:34:16.054Z,34.86
2023-04-04T19:36:43.669Z,35.37
2023-04-04T19:39:11.074Z,35.12
2023-04-04T19:41:39.273Z,35.69
2023-04-04T19:44:08.850Z,35.27
2023-04-04T19:46:36.318Z,35.30
2023-04-04T19:49:12.701Z,34.96
2023-04-04T19:51:41.046Z,35.82
2023-04-04T19:54:11.460Z,35.81
2023-04-04T19:56:38.818Z,36.11
2023-04-04T19:59:09.837Z,36.44
2023-04-04T20:01:44.735Z,34.88
2023-04-04T20:04:18.062Z,35.71
2023-04-04T20:06:45.561Z,36.84
2023-04-04T20:09:29.499Z,35.03
2023-04-04T20:11:57.149Z,35.24
2023-04-04T20:14:24.493Z,33.90
2023-04-04T20:16:52.412Z,33.33
2023-04-04T20:19:20.943Z,33.95
2023-04-04T20:21:48.818Z,34.88
2023-04-04T20:24:16.957Z,34.71
2023-04-04T20:27:00.023Z,34.15
2023-04-04T20:29:28.094Z,34.40
2023-04-04T20:32:02.617Z,35.22
2023-04-04T20:34:46.262Z,33.96
2023-04-04T20:37:25.980Z,33.62
2023-04-04T20:40:00.294Z,33.79
2023-04-04T20:42:27.758Z,33.82
2023-04-04T20:44:55.983Z,33.27
2023-04-04T20:47:42.802Z,34.09
2023-04-04T20:50:22.472Z,32.51
2023-04-04T20:52:56.911Z,33.51
2023-04-04T20:55:28.476Z,36.05
2023-04-04T20:58:09.474Z,34.01
2023-04-04T21:00:41.318Z,35.71
2023-04-04T21:03:10.403Z,34.19
2023-04-04T21:05:39.267Z,33.16
2023-04-04T21:08:24.622Z,34.40
2023-04-04T21:10:53.436Z,36.13
2023-04-04T21:13:27.210Z,35.72
2023-04-04T21:16:12.186Z,35.31
2023-04-04T21:18:40.327Z,35.40
2023-04-04T21:21:20.128Z,35.62
2023-04-04T21:23:53.002Z,37.11
2023-04-04T21:26:28.518Z,36.48
2023-04-04T21:28:56.976Z,35.75
2023-04-04T21:31:26.093Z,35.38
2023-04-04T21:33:54.681Z,36.22
2023-04-04T21:36:26.251Z,38.11
2023-04-04T21:39:01.731Z,36.51
2023-04-04T21:41:30.623Z,36.21
2023-04-04T21:43:59.404Z,35.54
2023-04-04T21:46:28.099Z,36.42
2023-04-04T21:48:55.595Z,34.51
2023-04-04T21:51:23.291Z,36.26
2023-04-04T21:53:50.955Z,37.16
2023-04-04T21:56:18.306Z,36.02
2023-04-04T21:58:46.082Z,36.88
2023-04-04T22:01:13.468Z,36.68
2023-04-04T22:03:41.112Z,36.25
2023-04-04T22:06:08.630Z,37.06
2023-04-04T22:08:36.043Z,37.72
2023-04-04T22:11:04.078Z,37.46
2023-04-04T22:13:32.900Z,36.73
2023-04-04T22:16:01.031Z,37.30
2023-04-04T22:18:33.719Z,39.22
2023-04-04T22:21:03.381Z,37.46
2023-04-04T22:23:37.461Z,35.69
2023-04-04T22:26:09.256Z,37.20
2023-04-04T22:28:38.867Z,38.72
2023-04-04T22:31:06.342Z,39.21
2023-04-04T22:33:34.110Z,39.04
2023-04-04T22:36:01.919Z,38.24
2023-04-04T22:38:29.497Z,38.35
2023-04-04T22:40:57.699Z,37.87
2023-04-04T22:43:28.613Z,39.12
2023-04-04T22:45:56.277Z,39.43
2023-04-04T22:48:23.761Z,39.30
2023-04-04T22:50:55.687Z,39.68
2023-04-04T22:53:26.128Z,40.14
2023-04-04T22:55:54.190Z,40.92
2023-04-04T22:58:21.831Z,39.95
2023-04-04T23:00:49.303Z,40.69
2023-04-04T23:03:17.127Z,40.71
2023-04-04T23:05:44.469Z,39.94
2023-04-04T23:08:11.816Z,39.62
2023-04-04T23:10:39.713Z,40.83
2023-04-04T23:13:07.266Z,41.73
2023-04-04T23:15:37.642Z,41.99
2023-04-04T23:18:05.713Z,41.65
2023-04-04T23:20:33.195Z,40.59
2023-04-04T23:23:00.582Z,41.09
2023-04-04T23:25:28.472Z,40.68
2023-04-04T23:27:55.932Z,41.19
2023-04-04T23:30:24.096Z,39.33
2023-04-04T23:32:51.803Z,40.74
2023-04-04T23:35:19.168Z,43.30
2023-04-04T23:37:46.520Z,42.22
2023-04-04T23:40:14.162Z,41.70
2023-04-04T23:42:41.862Z,40.91
2023-04-04T23:45:10.071Z,42.87
2023-04-04T23:47:37.752Z,41.63
2023-04-04T23:50:05.593Z,41.10
2023-04-04T23:52:33.012Z,41.99
2023-04-04T23:55:00.857Z,41.03
2023-04-04T23:57:28.767Z,40.24
2023-04-04T23:59:56.117Z,40.43
